sensor_id;sensor_type;location;lat;lon;timestamp;temperature;humidity
21355;DHT22;10835;50.148;19.760;2023-07-28T00:00:24;24.20;62.50
21355;DHT22;10835;50.148;19.760;2023-07-28T00:02:53;24.30;63.50
21355;DHT22;10835;50.148;19.760;2023-07-28T00:05:21;24.20;62.70
21355;DHT22;10835;50.148;19.760;2023-07-28T00:07:49;24.40;63.30
21355;DHT22;10835;50.148;19.760;2023-07-28T00:10:18;24.50;62.80
21355;DHT22;10835;50.148;19.760;2023-07-28T00:12:46;24.40;62.80
21355;DHT22;10835;50.148;19.760;2023-07-28T00:15:14;24.50;61.70
21355;DHT22;10835;50.148;19.760;2023-07-28T00:17:46;24.40;62.50
21355;DHT22;10835;50.148;19.760;2023-07-28T00:20:15;24.40;62.90
21355;DHT22;10835;50.148;19.760;2023-07-28T00:22:45;24.50;62.40
21355;DHT22;10835;50.148;19.760;2023-07-28T00:25:14;24.50;62.70
21355;DHT22;10835;50.148;19.760;2023-07-28T00:27:42;24.40;63.30
21355;DHT22;10835;50.148;19.760;2023-07-28T00:30:13;24.40;63.10
21355;DHT22;10835;50.148;19.760;2023-07-28T00:32:41;24.30;63.20
21355;DHT22;10835;50.148;19.760;2023-07-28T00:35:14;24.10;63.70
21355;DHT22;10835;50.148;19.760;2023-07-28T00:37:42;24.40;62.30
21355;DHT22;10835;50.148;19.760;2023-07-28T00:40:11;24.40;62.60
21355;DHT22;10835;50.148;19.760;2023-07-28T00:42:42;24.40;62.60
21355;DHT22;10835;50.148;19.760;2023-07-28T00:45:10;24.30;62.60
21355;DHT22;10835;50.148;19.760;2023-07-28T00:47:39;24.40;62.70
21355;DHT22;10835;50.148;19.760;2023-07-28T00:50:08;24.40;62.70
21355;DHT22;10835;50.148;19.760;2023-07-28T00:52:40;24.50;62.10
21355;DHT22;10835;50.148;19.760;2023-07-28T00:55:10;24.40;61.90
21355;DHT22;10835;50.148;19.760;2023-07-28T00:57:39;24.60;62.90
21355;DHT22;10835;50.148;19.760;2023-07-28T01:00:08;24.70;61.40
21355;DHT22;10835;50.148;19.760;2023-07-28T01:02:37;24.60;62.30
21355;DHT22;10835;50.148;19.760;2023-07-28T01:05:07;24.70;61.70
21355;DHT22;10835;50.148;19.760;2023-07-28T01:07:38;24.70;62.10
21355;DHT22;10835;50.148;19.760;2023-07-28T01:10:14;24.80;61.20
21355;DHT22;10835;50.148;19.760;2023-07-28T01:12:45;24.60;62.10
21355;DHT22;10835;50.148;19.760;2023-07-28T01:15:13;24.40;62.20
21355;DHT22;10835;50.148;19.760;2023-07-28T01:17:42;24.40;62.90
21355;DHT22;10835;50.148;19.760;2023-07-28T01:20:11;24.50;62.60
21355;DHT22;10835;50.148;19.760;2023-07-28T01:23:08;24.50;61.60
21355;DHT22;10835;50.148;19.760;2023-07-28T01:25:47;24.30;62.20
21355;DHT22;10835;50.148;19.760;2023-07-28T01:28:17;24.30;62.90
21355;DHT22;10835;50.148;19.760;2023-07-28T01:30:47;24.40;62.00
21355;DHT22;10835;50.148;19.760;2023-07-28T01:33:15;24.30;62.80
21355;DHT22;10835;50.148;19.760;2023-07-28T01:35:44;24.40;62.80
21355;DHT22;10835;50.148;19.760;2023-07-28T01:38:12;24.20;62.70
21355;DHT22;10835;50.148;19.760;2023-07-28T01:40:40;24.20;62.90
21355;DHT22;10835;50.148;19.760;2023-07-28T01:43:09;24.10;62.60
21355;DHT22;10835;50.148;19.760;2023-07-28T01:45:38;24.20;61.90
21355;DHT22;10835;50.148;19.760;2023-07-28T01:48:07;24.10;63.10
21355;DHT22;10835;50.148;19.760;2023-07-28T01:50:36;24.20;63.20
21355;DHT22;10835;50.148;19.760;2023-07-28T01:53:06;24.00;63.40
21355;DHT22;10835;50.148;19.760;2023-07-28T01:55:36;24.00;63.90
21355;DHT22;10835;50.148;19.760;2023-07-28T01:58:04;24.00;63.90
21355;DHT22;10835;50.148;19.760;2023-07-28T02:00:33;24.00;63.10
21355;DHT22;10835;50.148;19.760;2023-07-28T02:03:02;24.10;63.50
21355;DHT22;10835;50.148;19.760;2023-07-28T02:05:32;24.20;63.70
21355;DHT22;10835;50.148;19.760;2023-07-28T02:08:00;24.30;62.20
21355;DHT22;10835;50.148;19.760;2023-07-28T02:10:29;24.40;63.30
21355;DHT22;10835;50.148;19.760;2023-07-28T02:12:57;24.30;63.30
21355;DHT22;10835;50.148;19.760;2023-07-28T02:15:26;24.30;62.70
21355;DHT22;10835;50.148;19.760;2023-07-28T02:17:54;24.60;62.50
21355;DHT22;10835;50.148;19.760;2023-07-28T02:20:24;24.70;62.30
21355;DHT22;10835;50.148;19.760;2023-07-28T02:22:52;24.40;62.00
21355;DHT22;10835;50.148;19.760;2023-07-28T02:25:21;24.20;62.20
21355;DHT22;10835;50.148;19.760;2023-07-28T02:27:50;24.20;62.50
21355;DHT22;10835;50.148;19.760;2023-07-28T02:30:18;24.30;62.50
21355;DHT22;10835;50.148;19.760;2023-07-28T02:32:46;24.40;63.90
21355;DHT22;10835;50.148;19.760;2023-07-28T02:35:15;24.50;63.70
21355;DHT22;10835;50.148;19.760;2023-07-28T02:37:48;24.60;63.70
21355;DHT22;10835;50.148;19.760;2023-07-28T02:40:17;24.60;63.40
21355;DHT22;10835;50.148;19.760;2023-07-28T02:42:45;24.70;63.60
21355;DHT22;10835;50.148;19.760;2023-07-28T02:45:13;24.90;63.20
21355;DHT22;10835;50.148;19.760;2023-07-28T02:47:42;25.00;62.20
21355;DHT22;10835;50.148;19.760;2023-07-28T02:50:10;24.80;61.80
21355;DHT22;10835;50.148;19.760;2023-07-28T02:52:39;24.70;62.40
21355;DHT22;10835;50.148;19.760;2023-07-28T02:55:09;24.40;62.60
21355;DHT22;10835;50.148;19.760;2023-07-28T02:57:37;24.40;62.30
21355;DHT22;10835;50.148;19.760;2023-07-28T03:00:07;24.40;63.50
21355;DHT22;10835;50.148;19.760;2023-07-28T03:02:38;24.40;63.10
21355;DHT22;10835;50.148;19.760;2023-07-28T03:05:07;24.40;63.00
21355;DHT22;10835;50.148;19.760;2023-07-28T03:08:05;24.40;62.60
21355;DHT22;10835;50.148;19.760;2023-07-28T03:10:35;24.40;61.90
21355;DHT22;10835;50.148;19.760;2023-07-28T03:13:05;24.30;62.70
21355;DHT22;10835;50.148;19.760;2023-07-28T03:15:33;24.50;61.00
21355;DHT22;10835;50.148;19.760;2023-07-28T03:18:02;24.60;61.70
21355;DHT22;10835;50.148;19.760;2023-07-28T03:20:30;24.40;62.50
21355;DHT22;10835;50.148;19.760;2023-07-28T03:22:59;24.40;62.20
21355;DHT22;10835;50.148;19.760;2023-07-28T03:25:27;24.40;62.60
21355;DHT22;10835;50.148;19.760;2023-07-28T03:27:57;24.40;62.50
21355;DHT22;10835;50.148;19.760;2023-07-28T03:30:26;24.70;63.00
21355;DHT22;10835;50.148;19.760;2023-07-28T03:32:54;24.80;61.50
21355;DHT22;10835;50.148;19.760;2023-07-28T03:35:23;24.90;63.00
21355;DHT22;10835;50.148;19.760;2023-07-28T03:38:04;24.90;61.10
21355;DHT22;10835;50.148;19.760;2023-07-28T03:40:32;24.90;62.30
21355;DHT22;10835;50.148;19.760;2023-07-28T03:43:03;25.10;60.50
21355;DHT22;10835;50.148;19.760;2023-07-28T03:45:31;25.20;59.80
21355;DHT22;10835;50.148;19.760;2023-07-28T03:47:59;24.90;61.80
21355;DHT22;10835;50.148;19.760;2023-07-28T03:50:28;24.70;62.00
21355;DHT22;10835;50.148;19.760;2023-07-28T03:52:56;24.50;63.10
21355;DHT22;10835;50.148;19.760;2023-07-28T03:55:25;24.40;63.40
21355;DHT22;10835;50.148;19.760;2023-07-28T03:57:53;24.50;63.80
21355;DHT22;10835;50.148;19.760;2023-07-28T04:00:23;24.70;64.40
21355;DHT22;10835;50.148;19.760;2023-07-28T04:02:51;24.80;63.70
21355;DHT22;10835;50.148;19.760;2023-07-28T04:05:19;24.80;64.00
21355;DHT22;10835;50.148;19.760;2023-07-28T04:07:48;24.80;63.50
21355;DHT22;10835;50.148;19.760;2023-07-28T04:10:16;24.90;61.80
21355;DHT22;10835;50.148;19.760;2023-07-28T04:12:44;24.90;62.20
21355;DHT22;10835;50.148;19.760;2023-07-28T04:15:13;24.80;62.40
21355;DHT22;10835;50.148;19.760;2023-07-28T04:17:43;24.90;63.00
21355;DHT22;10835;50.148;19.760;2023-07-28T04:20:11;24.70;63.20
21355;DHT22;10835;50.148;19.760;2023-07-28T04:22:40;24.60;63.20
21355;DHT22;10835;50.148;19.760;2023-07-28T04:25:10;24.50;63.70
21355;DHT22;10835;50.148;19.760;2023-07-28T04:27:42;24.50;64.10
21355;DHT22;10835;50.148;19.760;2023-07-28T04:30:14;24.60;62.80
21355;DHT22;10835;50.148;19.760;2023-07-28T04:32:43;24.40;63.30
21355;DHT22;10835;50.148;19.760;2023-07-28T04:35:17;24.40;63.10
21355;DHT22;10835;50.148;19.760;2023-07-28T04:37:57;24.50;63.80
21355;DHT22;10835;50.148;19.760;2023-07-28T04:40:45;24.70;63.40
21355;DHT22;10835;50.148;19.760;2023-07-28T04:43:17;24.70;64.30
21355;DHT22;10835;50.148;19.760;2023-07-28T04:45:54;24.60;64.40
21355;DHT22;10835;50.148;19.760;2023-07-28T04:48:26;24.50;64.10
21355;DHT22;10835;50.148;19.760;2023-07-28T04:50:55;24.40;63.40
21355;DHT22;10835;50.148;19.760;2023-07-28T04:53:23;24.50;63.60
21355;DHT22;10835;50.148;19.760;2023-07-28T04:56:03;24.40;63.70
21355;DHT22;10835;50.148;19.760;2023-07-28T04:58:32;24.60;64.50
21355;DHT22;10835;50.148;19.760;2023-07-28T05:01:04;24.70;64.30
21355;DHT22;10835;50.148;19.760;2023-07-28T05:03:37;24.70;64.40
21355;DHT22;10835;50.148;19.760;2023-07-28T05:06:18;24.70;64.30
21355;DHT22;10835;50.148;19.760;2023-07-28T05:08:46;24.70;64.50
21355;DHT22;10835;50.148;19.760;2023-07-28T05:11:21;24.70;64.50
21355;DHT22;10835;50.148;19.760;2023-07-28T05:13:49;24.80;64.80
21355;DHT22;10835;50.148;19.760;2023-07-28T05:16:18;25.10;63.00
21355;DHT22;10835;50.148;19.760;2023-07-28T05:19:07;25.10;63.20
21355;DHT22;10835;50.148;19.760;2023-07-28T05:21:53;25.10;63.60
21355;DHT22;10835;50.148;19.760;2023-07-28T05:24:30;25.20;64.20
21355;DHT22;10835;50.148;19.760;2023-07-28T05:26:58;25.30;64.10
21355;DHT22;10835;50.148;19.760;2023-07-28T05:29:27;25.40;63.60
21355;DHT22;10835;50.148;19.760;2023-07-28T05:32:04;25.30;63.90
21355;DHT22;10835;50.148;19.760;2023-07-28T05:34:43;25.30;64.00
21355;DHT22;10835;50.148;19.760;2023-07-28T05:37:12;25.30;64.80
21355;DHT22;10835;50.148;19.760;2023-07-28T05:39:40;25.30;64.00
21355;DHT22;10835;50.148;19.760;2023-07-28T05:42:10;25.40;63.60
21355;DHT22;10835;50.148;19.760;2023-07-28T05:44:38;25.50;63.80
21355;DHT22;10835;50.148;19.760;2023-07-28T05:47:07;25.60;62.90
21355;DHT22;10835;50.148;19.760;2023-07-28T05:49:35;25.70;65.00
21355;DHT22;10835;50.148;19.760;2023-07-28T05:52:05;25.80;64.50
21355;DHT22;10835;50.148;19.760;2023-07-28T05:54:34;26.00;63.50
21355;DHT22;10835;50.148;19.760;2023-07-28T05:57:02;26.10;63.10
21355;DHT22;10835;50.148;19.760;2023-07-28T05:59:33;26.30;59.60
21355;DHT22;10835;50.148;19.760;2023-07-28T06:02:05;26.40;59.90
21355;DHT22;10835;50.148;19.760;2023-07-28T06:04:45;26.40;59.00
21355;DHT22;10835;50.148;19.760;2023-07-28T06:07:14;26.60;58.90
21355;DHT22;10835;50.148;19.760;2023-07-28T06:09:43;26.50;59.40
21355;DHT22;10835;50.148;19.760;2023-07-28T06:12:11;26.70;58.80
21355;DHT22;10835;50.148;19.760;2023-07-28T06:14:40;26.70;59.50
21355;DHT22;10835;50.148;19.760;2023-07-28T06:17:10;26.70;60.70
21355;DHT22;10835;50.148;19.760;2023-07-28T06:19:38;26.50;60.50
21355;DHT22;10835;50.148;19.760;2023-07-28T06:22:07;26.70;58.90
21355;DHT22;10835;50.148;19.760;2023-07-28T06:24:42;26.70;59.00
21355;DHT22;10835;50.148;19.760;2023-07-28T06:27:10;26.60;58.50
21355;DHT22;10835;50.148;19.760;2023-07-28T06:29:40;26.40;58.70
21355;DHT22;10835;50.148;19.760;2023-07-28T06:32:08;26.10;58.50
21355;DHT22;10835;50.148;19.760;2023-07-28T06:34:37;25.90;59.50
21355;DHT22;10835;50.148;19.760;2023-07-28T06:37:05;25.70;59.80
21355;DHT22;10835;50.148;19.760;2023-07-28T06:39:34;25.50;60.90
21355;DHT22;10835;50.148;19.760;2023-07-28T06:42:07;25.30;61.20
21355;DHT22;10835;50.148;19.760;2023-07-28T06:44:39;25.50;61.40
21355;DHT22;10835;50.148;19.760;2023-07-28T06:47:07;25.40;61.30
21355;DHT22;10835;50.148;19.760;2023-07-28T06:49:36;25.40;61.90
21355;DHT22;10835;50.148;19.760;2023-07-28T06:52:05;25.50;62.00
21355;DHT22;10835;50.148;19.760;2023-07-28T06:54:34;25.40;61.50
21355;DHT22;10835;50.148;19.760;2023-07-28T06:57:04;25.60;61.80
21355;DHT22;10835;50.148;19.760;2023-07-28T06:59:33;25.70;61.30
21355;DHT22;10835;50.148;19.760;2023-07-28T07:02:01;25.70;61.50
21355;DHT22;10835;50.148;19.760;2023-07-28T07:04:30;25.50;61.80
21355;DHT22;10835;50.148;19.760;2023-07-28T07:06:58;25.70;61.30
21355;DHT22;10835;50.148;19.760;2023-07-28T07:09:27;25.70;61.60
21355;DHT22;10835;50.148;19.760;2023-07-28T07:11:55;25.80;61.40
21355;DHT22;10835;50.148;19.760;2023-07-28T07:14:25;25.90;61.90
21355;DHT22;10835;50.148;19.760;2023-07-28T07:16:53;26.00;61.60
21355;DHT22;10835;50.148;19.760;2023-07-28T07:19:22;26.00;62.10
21355;DHT22;10835;50.148;19.760;2023-07-28T07:21:50;25.90;62.00
21355;DHT22;10835;50.148;19.760;2023-07-28T07:24:19;25.90;62.70
21355;DHT22;10835;50.148;19.760;2023-07-28T07:26:48;26.00;61.80
21355;DHT22;10835;50.148;19.760;2023-07-28T07:29:18;26.20;61.90
21355;DHT22;10835;50.148;19.760;2023-07-28T07:31:47;26.10;62.20
21355;DHT22;10835;50.148;19.760;2023-07-28T07:34:16;26.20;62.90
21355;DHT22;10835;50.148;19.760;2023-07-28T07:36:45;26.20;62.60
21355;DHT22;10835;50.148;19.760;2023-07-28T07:39:14;26.30;62.40
21355;DHT22;10835;50.148;19.760;2023-07-28T07:41:42;26.40;63.50
21355;DHT22;10835;50.148;19.760;2023-07-28T07:44:12;26.50;61.60
21355;DHT22;10835;50.148;19.760;2023-07-28T07:46:41;26.50;61.70
21355;DHT22;10835;50.148;19.760;2023-07-28T07:49:12;26.40;63.00
21355;DHT22;10835;50.148;19.760;2023-07-28T07:51:40;26.30;64.50
21355;DHT22;10835;50.148;19.760;2023-07-28T07:54:09;26.30;64.60
21355;DHT22;10835;50.148;19.760;2023-07-28T07:56:37;26.40;63.90
21355;DHT22;10835;50.148;19.760;2023-07-28T07:59:05;26.60;63.70
21355;DHT22;10835;50.148;19.760;2023-07-28T08:01:34;26.70;63.00
21355;DHT22;10835;50.148;19.760;2023-07-28T08:04:03;26.50;64.20
21355;DHT22;10835;50.148;19.760;2023-07-28T08:06:32;26.50;65.00
21355;DHT22;10835;50.148;19.760;2023-07-28T08:09:01;26.30;65.80
21355;DHT22;10835;50.148;19.760;2023-07-28T08:11:30;26.40;66.20
21355;DHT22;10835;50.148;19.760;2023-07-28T08:13:59;26.20;67.20
21355;DHT22;10835;50.148;19.760;2023-07-28T08:16:27;26.20;67.90
21355;DHT22;10835;50.148;19.760;2023-07-28T08:18:55;26.00;69.10
21355;DHT22;10835;50.148;19.760;2023-07-28T08:21:23;26.10;68.80
21355;DHT22;10835;50.148;19.760;2023-07-28T08:23:53;26.00;69.40
21355;DHT22;10835;50.148;19.760;2023-07-28T08:26:24;26.00;68.70
21355;DHT22;10835;50.148;19.760;2023-07-28T08:28:54;26.00;69.80
21355;DHT22;10835;50.148;19.760;2023-07-28T08:31:22;26.00;70.30
21355;DHT22;10835;50.148;19.760;2023-07-28T08:33:53;26.00;70.90
21355;DHT22;10835;50.148;19.760;2023-07-28T08:36:21;26.00;71.00
21355;DHT22;10835;50.148;19.760;2023-07-28T08:38:54;26.10;70.30
21355;DHT22;10835;50.148;19.760;2023-07-28T08:41:22;26.10;71.50
21355;DHT22;10835;50.148;19.760;2023-07-28T08:43:52;26.20;70.60
21355;DHT22;10835;50.148;19.760;2023-07-28T08:46:20;26.20;69.80
21355;DHT22;10835;50.148;19.760;2023-07-28T08:48:50;26.40;70.20
21355;DHT22;10835;50.148;19.760;2023-07-28T08:51:18;26.30;70.60
21355;DHT22;10835;50.148;19.760;2023-07-28T08:53:49;26.20;71.00
21355;DHT22;10835;50.148;19.760;2023-07-28T08:56:20;26.30;70.30
21355;DHT22;10835;50.148;19.760;2023-07-28T08:58:57;26.40;70.80
21355;DHT22;10835;50.148;19.760;2023-07-28T09:01:26;26.40;69.90
21355;DHT22;10835;50.148;19.760;2023-07-28T09:03:54;26.50;70.10
21355;DHT22;10835;50.148;19.760;2023-07-28T09:06:28;26.60;70.70
21355;DHT22;10835;50.148;19.760;2023-07-28T09:08:58;26.50;70.70
21355;DHT22;10835;50.148;19.760;2023-07-28T09:11:27;26.70;70.30
21355;DHT22;10835;50.148;19.760;2023-07-28T09:14:00;26.80;69.70
21355;DHT22;10835;50.148;19.760;2023-07-28T09:16:29;26.70;70.40
21355;DHT22;10835;50.148;19.760;2023-07-28T09:19:04;26.70;70.10
21355;DHT22;10835;50.148;19.760;2023-07-28T09:21:34;26.90;70.50
21355;DHT22;10835;50.148;19.760;2023-07-28T09:24:04;26.90;70.50
21355;DHT22;10835;50.148;19.760;2023-07-28T09:26:38;27.00;70.60
21355;DHT22;10835;50.148;19.760;2023-07-28T09:29:14;27.10;70.00
21355;DHT22;10835;50.148;19.760;2023-07-28T09:31:43;27.00;70.80
21355;DHT22;10835;50.148;19.760;2023-07-28T09:34:12;27.40;70.90
21355;DHT22;10835;50.148;19.760;2023-07-28T09:36:40;27.60;68.80
21355;DHT22;10835;50.148;19.760;2023-07-28T09:39:10;27.60;69.70
21355;DHT22;10835;50.148;19.760;2023-07-28T09:41:40;27.40;68.70
21355;DHT22;10835;50.148;19.760;2023-07-28T09:44:10;27.40;67.90
21355;DHT22;10835;50.148;19.760;2023-07-28T09:46:49;27.50;68.70
21355;DHT22;10835;50.148;19.760;2023-07-28T09:49:21;27.30;66.40
21355;DHT22;10835;50.148;19.760;2023-07-28T09:51:59;27.10;65.50
21355;DHT22;10835;50.148;19.760;2023-07-28T09:54:36;26.70;65.90
21355;DHT22;10835;50.148;19.760;2023-07-28T09:57:12;26.60;68.20
21355;DHT22;10835;50.148;19.760;2023-07-28T09:59:42;26.40;67.80
21355;DHT22;10835;50.148;19.760;2023-07-28T10:02:13;26.40;68.00
21355;DHT22;10835;50.148;19.760;2023-07-28T10:04:44;26.10;68.10
21355;DHT22;10835;50.148;19.760;2023-07-28T10:07:13;26.20;68.70
21355;DHT22;10835;50.148;19.760;2023-07-28T10:09:45;26.30;68.50
21355;DHT22;10835;50.148;19.760;2023-07-28T10:12:21;26.30;67.70
21355;DHT22;10835;50.148;19.760;2023-07-28T10:15:01;26.40;68.30
21355;DHT22;10835;50.148;19.760;2023-07-28T10:17:34;26.50;67.60
21355;DHT22;10835;50.148;19.760;2023-07-28T10:20:03;26.50;67.10
21355;DHT22;10835;50.148;19.760;2023-07-28T10:22:43;26.50;67.50
21355;DHT22;10835;50.148;19.760;2023-07-28T10:25:12;26.40;68.00
21355;DHT22;10835;50.148;19.760;2023-07-28T10:27:51;26.50;68.20
21355;DHT22;10835;50.148;19.760;2023-07-28T10:30:20;26.40;67.70
21355;DHT22;10835;50.148;19.760;2023-07-28T10:32:49;26.30;66.70
21355;DHT22;10835;50.148;19.760;2023-07-28T10:35:26;26.40;67.20
21355;DHT22;10835;50.148;19.760;2023-07-28T10:37:56;26.40;68.30
21355;DHT22;10835;50.148;19.760;2023-07-28T10:40:27;26.50;66.70
21355;DHT22;10835;50.148;19.760;2023-07-28T10:42:58;26.60;67.20
21355;DHT22;10835;50.148;19.760;2023-07-28T10:45:28;26.70;67.30
21355;DHT22;10835;50.148;19.760;2023-07-28T10:47:57;26.70;66.90
21355;DHT22;10835;50.148;19.760;2023-07-28T10:50:28;26.60;66.10
21355;DHT22;10835;50.148;19.760;2023-07-28T10:52:57;26.60;67.40
21355;DHT22;10835;50.148;19.760;2023-07-28T10:55:26;26.50;66.70
21355;DHT22;10835;50.148;19.760;2023-07-28T10:57:55;26.40;67.40
21355;DHT22;10835;50.148;19.760;2023-07-28T11:00:27;26.80;68.10
21355;DHT22;10835;50.148;19.760;2023-07-28T11:02:55;27.00;66.20
21355;DHT22;10835;50.148;19.760;2023-07-28T11:05:26;27.10;65.80
21355;DHT22;10835;50.148;19.760;2023-07-28T11:07:55;27.00;66.30
21355;DHT22;10835;50.148;19.760;2023-07-28T11:10:25;27.20;66.80
21355;DHT22;10835;50.148;19.760;2023-07-28T11:12:58;27.20;67.00
21355;DHT22;10835;50.148;19.760;2023-07-28T11:15:38;27.30;66.70
21355;DHT22;10835;50.148;19.760;2023-07-28T11:18:06;27.10;66.20
21355;DHT22;10835;50.148;19.760;2023-07-28T11:20:36;27.10;66.90
21355;DHT22;10835;50.148;19.760;2023-07-28T11:23:06;26.80;66.40
21355;DHT22;10835;50.148;19.760;2023-07-28T11:25:35;26.60;66.40
21355;DHT22;10835;50.148;19.760;2023-07-28T11:28:04;26.60;68.00
21355;DHT22;10835;50.148;19.760;2023-07-28T11:30:36;26.80;67.70
21355;DHT22;10835;50.148;19.760;2023-07-28T11:33:09;27.00;67.80
21355;DHT22;10835;50.148;19.760;2023-07-28T11:35:38;26.80;67.00
21355;DHT22;10835;50.148;19.760;2023-07-28T11:38:08;26.70;66.80
21355;DHT22;10835;50.148;19.760;2023-07-28T11:40:38;26.70;67.20
21355;DHT22;10835;50.148;19.760;2023-07-28T11:43:06;26.80;66.80
21355;DHT22;10835;50.148;19.760;2023-07-28T11:45:35;26.80;67.10
21355;DHT22;10835;50.148;19.760;2023-07-28T11:48:06;26.70;68.00
21355;DHT22;10835;50.148;19.760;2023-07-28T11:50:37;26.70;67.50
21355;DHT22;10835;50.148;19.760;2023-07-28T11:53:06;26.70;67.90
21355;DHT22;10835;50.148;19.760;2023-07-28T11:55:36;26.70;68.30
21355;DHT22;10835;50.148;19.760;2023-07-28T11:58:05;26.60;68.20
21355;DHT22;10835;50.148;19.760;2023-07-28T12:00:35;26.50;68.60
21355;DHT22;10835;50.148;19.760;2023-07-28T12:03:06;26.60;68.70
21355;DHT22;10835;50.148;19.760;2023-07-28T12:05:37;26.80;69.70
21355;DHT22;10835;50.148;19.760;2023-07-28T12:08:35;27.10;68.30
21355;DHT22;10835;50.148;19.760;2023-07-28T12:11:03;26.90;67.30
21355;DHT22;10835;50.148;19.760;2023-07-28T12:13:47;26.90;68.20
21355;DHT22;10835;50.148;19.760;2023-07-28T12:16:34;27.00;67.00
21355;DHT22;10835;50.148;19.760;2023-07-28T12:19:07;27.00;67.80
21355;DHT22;10835;50.148;19.760;2023-07-28T12:21:36;27.20;66.60
21355;DHT22;10835;50.148;19.760;2023-07-28T12:24:08;27.10;66.20
21355;DHT22;10835;50.148;19.760;2023-07-28T12:26:36;27.10;68.10
21355;DHT22;10835;50.148;19.760;2023-07-28T12:29:07;27.10;67.40
21355;DHT22;10835;50.148;19.760;2023-07-28T12:31:38;27.20;67.60
21355;DHT22;10835;50.148;19.760;2023-07-28T12:34:11;27.50;67.80
21355;DHT22;10835;50.148;19.760;2023-07-28T12:36:51;27.80;66.50
21355;DHT22;10835;50.148;19.760;2023-07-28T12:39:21;27.70;66.30
21355;DHT22;10835;50.148;19.760;2023-07-28T12:41:55;27.90;65.70
21355;DHT22;10835;50.148;19.760;2023-07-28T12:44:26;27.70;66.00
21355;DHT22;10835;50.148;19.760;2023-07-28T12:46:57;27.60;68.00
21355;DHT22;10835;50.148;19.760;2023-07-28T12:49:27;27.60;67.80
21355;DHT22;10835;50.148;19.760;2023-07-28T12:51:56;27.70;66.70
21355;DHT22;10835;50.148;19.760;2023-07-28T12:54:26;27.90;67.30
21355;DHT22;10835;50.148;19.760;2023-07-28T12:56:55;28.10;64.70
21355;DHT22;10835;50.148;19.760;2023-07-28T12:59:26;28.00;65.80
21355;DHT22;10835;50.148;19.760;2023-07-28T13:01:56;28.20;64.90
21355;DHT22;10835;50.148;19.760;2023-07-28T13:04:26;28.20;65.30
21355;DHT22;10835;50.148;19.760;2023-07-28T13:06:56;28.50;65.80
21355;DHT22;10835;50.148;19.760;2023-07-28T13:09:44;28.80;64.80
21355;DHT22;10835;50.148;19.760;2023-07-28T13:12:13;28.60;62.60
21355;DHT22;10835;50.148;19.760;2023-07-28T13:14:47;28.50;64.30
21355;DHT22;10835;50.148;19.760;2023-07-28T13:17:16;28.50;64.20
21355;DHT22;10835;50.148;19.760;2023-07-28T13:19:44;28.50;64.80
21355;DHT22;10835;50.148;19.760;2023-07-28T13:22:13;28.30;65.80
21355;DHT22;10835;50.148;19.760;2023-07-28T13:25:05;28.40;65.90
21355;DHT22;10835;50.148;19.760;2023-07-28T13:27:34;28.40;66.30
21355;DHT22;10835;50.148;19.760;2023-07-28T13:30:02;28.40;64.30
21355;DHT22;10835;50.148;19.760;2023-07-28T13:32:32;28.60;65.00
21355;DHT22;10835;50.148;19.760;2023-07-28T13:35:00;28.80;64.20
21355;DHT22;10835;50.148;19.760;2023-07-28T13:37:32;28.80;63.00
21355;DHT22;10835;50.148;19.760;2023-07-28T13:40:00;28.80;64.20
21355;DHT22;10835;50.148;19.760;2023-07-28T13:42:29;28.90;64.20
21355;DHT22;10835;50.148;19.760;2023-07-28T13:44:58;28.90;62.90
21355;DHT22;10835;50.148;19.760;2023-07-28T13:47:26;29.10;63.80
21355;DHT22;10835;50.148;19.760;2023-07-28T13:49:54;29.10;62.20
21355;DHT22;10835;50.148;19.760;2023-07-28T13:52:23;28.90;62.60
21355;DHT22;10835;50.148;19.760;2023-07-28T13:54:53;29.10;65.00
21355;DHT22;10835;50.148;19.760;2023-07-28T13:57:24;29.50;62.20
21355;DHT22;10835;50.148;19.760;2023-07-28T13:59:53;29.40;61.80
21355;DHT22;10835;50.148;19.760;2023-07-28T14:02:21;29.50;61.50
21355;DHT22;10835;50.148;19.760;2023-07-28T14:04:52;29.60;61.30
21355;DHT22;10835;50.148;19.760;2023-07-28T14:07:21;29.50;61.20
21355;DHT22;10835;50.148;19.760;2023-07-28T14:09:49;29.40;60.60
21355;DHT22;10835;50.148;19.760;2023-07-28T14:12:19;29.50;62.10
21355;DHT22;10835;50.148;19.760;2023-07-28T14:14:47;29.60;61.30
21355;DHT22;10835;50.148;19.760;2023-07-28T14:17:17;29.50;61.10
21355;DHT22;10835;50.148;19.760;2023-07-28T14:19:45;29.50;61.40
21355;DHT22;10835;50.148;19.760;2023-07-28T14:22:13;29.40;61.40
21355;DHT22;10835;50.148;19.760;2023-07-28T14:24:41;29.60;63.10
21355;DHT22;10835;50.148;19.760;2023-07-28T14:27:11;29.80;61.30
21355;DHT22;10835;50.148;19.760;2023-07-28T14:29:40;29.80;62.00
21355;DHT22;10835;50.148;19.760;2023-07-28T14:32:09;29.90;60.00
21355;DHT22;10835;50.148;19.760;2023-07-28T14:34:37;29.90;59.60
21355;DHT22;10835;50.148;19.760;2023-07-28T14:37:06;29.70;59.40
21355;DHT22;10835;50.148;19.760;2023-07-28T14:39:34;29.60;60.00
21355;DHT22;10835;50.148;19.760;2023-07-28T14:42:03;29.50;59.80
21355;DHT22;10835;50.148;19.760;2023-07-28T14:44:31;29.20;60.20
21355;DHT22;10835;50.148;19.760;2023-07-28T14:47:01;29.20;59.80
21355;DHT22;10835;50.148;19.760;2023-07-28T14:49:32;29.30;59.80
21355;DHT22;10835;50.148;19.760;2023-07-28T14:52:00;29.50;60.00
21355;DHT22;10835;50.148;19.760;2023-07-28T14:54:29;29.50;61.20
21355;DHT22;10835;50.148;19.760;2023-07-28T14:56:57;29.80;60.30
21355;DHT22;10835;50.148;19.760;2023-07-28T14:59:26;29.70;58.90
21355;DHT22;10835;50.148;19.760;2023-07-28T15:01:54;29.80;58.80
21355;DHT22;10835;50.148;19.760;2023-07-28T15:04:24;29.90;58.30
21355;DHT22;10835;50.148;19.760;2023-07-28T15:06:52;30.00;57.70
21355;DHT22;10835;50.148;19.760;2023-07-28T15:09:20;29.90;57.30
21355;DHT22;10835;50.148;19.760;2023-07-28T15:11:52;29.60;58.20
21355;DHT22;10835;50.148;19.760;2023-07-28T15:14:20;29.40;58.70
21355;DHT22;10835;50.148;19.760;2023-07-28T15:16:48;29.50;58.70
21355;DHT22;10835;50.148;19.760;2023-07-28T15:19:17;29.40;59.30
21355;DHT22;10835;50.148;19.760;2023-07-28T15:21:46;29.50;59.20
21355;DHT22;10835;50.148;19.760;2023-07-28T15:24:15;29.50;58.90
21355;DHT22;10835;50.148;19.760;2023-07-28T15:26:46;29.50;58.70
21355;DHT22;10835;50.148;19.760;2023-07-28T15:29:17;29.70;59.20
21355;DHT22;10835;50.148;19.760;2023-07-28T15:31:45;29.80;58.50
21355;DHT22;10835;50.148;19.760;2023-07-28T15:34:13;29.80;58.80